sensor_id;sensor_type;location;lat;lon;timestamp;P1;durP1;ratioP1;P2;durP2;ratioP2
14326;SDS011;7247;53.330;-1.180;2023-02-28T00:02:23;5.10;;;3.50;;
14326;SDS011;7247;53.330;-1.180;2023-02-28T00:04:50;3.83;;;2.63;;
14326;SDS011;7247;53.330;-1.180;2023-02-28T00:07:19;5.10;;;3.23;;
14326;SDS011;7247;53.330;-1.180;2023-02-28T00:09:45;5.73;;;3.20;;
14326;SDS011;7247;53.330;-1.180;2023-02-28T00:12:12;5.73;;;3.33;;
14326;SDS011;7247;53.330;-1.180;2023-02-28T00:14:40;5.33;;;3.13;;
14326;SDS011;7247;53.330;-1.180;2023-02-28T00:17:06;7.80;;;3.93;;
14326;SDS011;7247;53.330;-1.180;2023-02-28T00:19:33;5.43;;;3.50;;
14326;SDS011;7247;53.330;-1.180;2023-02-28T00:21:59;6.80;;;4.30;;
14326;SDS011;7247;53.330;-1.180;2023-02-28T00:24:27;6.07;;;4.43;;
14326;SDS011;7247;53.330;-1.180;2023-02-28T00:26:53;6.43;;;4.20;;
14326;SDS011;7247;53.330;-1.180;2023-02-28T00:29:20;7.70;;;4.30;;
14326;SDS011;7247;53.330;-1.180;2023-02-28T00:31:46;5.10;;;3.97;;
14326;SDS011;7247;53.330;-1.180;2023-02-28T00:34:12;6.53;;;4.20;;
14326;SDS011;7247;53.330;-1.180;2023-02-28T00:36:39;6.10;;;3.93;;
14326;SDS011;7247;53.330;-1.180;2023-02-28T00:39:08;9.07;;;4.30;;
14326;SDS011;7247;53.330;-1.180;2023-02-28T00:41:36;6.83;;;3.83;;
14326;SDS011;7247;53.330;-1.180;2023-02-28T00:44:03;5.17;;;4.13;;
14326;SDS011;7247;53.330;-1.180;2023-02-28T00:46:29;5.53;;;4.50;;
14326;SDS011;7247;53.330;-1.180;2023-02-28T00:48:56;6.47;;;4.70;;
14326;SDS011;7247;53.330;-1.180;2023-02-28T00:51:22;9.87;;;6.20;;
14326;SDS011;7247;53.330;-1.180;2023-02-28T00:53:48;5.33;;;4.73;;
14326;SDS011;7247;53.330;-1.180;2023-02-28T00:56:15;10.33;;;5.20;;
14326;SDS011;7247;53.330;-1.180;2023-02-28T00:58:42;7.63;;;4.90;;
14326;SDS011;7247;53.330;-1.180;2023-02-28T01:01:09;10.03;;;6.33;;
14326;SDS011;7247;53.330;-1.180;2023-02-28T01:03:35;9.17;;;6.20;;
14326;SDS011;7247;53.330;-1.180;2023-02-28T01:06:02;9.20;;;6.43;;
14326;SDS011;7247;53.330;-1.180;2023-02-28T01:08:28;9.27;;;5.70;;
14326;SDS011;7247;53.330;-1.180;2023-02-28T01:10:55;11.13;;;8.30;;
14326;SDS011;7247;53.330;-1.180;2023-02-28T01:13:21;12.57;;;9.20;;
14326;SDS011;7247;53.330;-1.180;2023-02-28T01:15:50;18.40;;;10.97;;
14326;SDS011;7247;53.330;-1.180;2023-02-28T01:18:17;16.03;;;12.43;;
14326;SDS011;7247;53.330;-1.180;2023-02-28T01:20:43;19.97;;;11.97;;
14326;SDS011;7247;53.330;-1.180;2023-02-28T01:23:11;18.93;;;12.07;;
14326;SDS011;7247;53.330;-1.180;2023-02-28T01:25:37;18.70;;;11.07;;
14326;SDS011;7247;53.330;-1.180;2023-02-28T01:28:04;13.20;;;9.77;;
14326;SDS011;7247;53.330;-1.180;2023-02-28T01:30:31;12.20;;;8.20;;
14326;SDS011;7247;53.330;-1.180;2023-02-28T01:32:59;13.37;;;8.23;;
14326;SDS011;7247;53.330;-1.180;2023-02-28T01:35:25;11.73;;;7.80;;
14326;SDS011;7247;53.330;-1.180;2023-02-28T01:37:52;11.13;;;8.23;;
14326;SDS011;7247;53.330;-1.180;2023-02-28T01:40:18;17.40;;;10.83;;
14326;SDS011;7247;53.330;-1.180;2023-02-28T01:42:45;19.67;;;11.63;;
14326;SDS011;7247;53.330;-1.180;2023-02-28T01:45:18;16.50;;;12.00;;
14326;SDS011;7247;53.330;-1.180;2023-02-28T01:47:44;21.90;;;12.17;;
14326;SDS011;7247;53.330;-1.180;2023-02-28T01:50:13;21.70;;;11.93;;
14326;SDS011;7247;53.330;-1.180;2023-02-28T01:52:40;20.23;;;13.10;;
14326;SDS011;7247;53.330;-1.180;2023-02-28T01:55:08;20.53;;;13.83;;
14326;SDS011;7247;53.330;-1.180;2023-02-28T01:57:37;19.80;;;13.77;;
14326;SDS011;7247;53.330;-1.180;2023-02-28T02:00:06;20.53;;;13.80;;
14326;SDS011;7247;53.330;-1.180;2023-02-28T02:02:34;20.37;;;13.87;;
14326;SDS011;7247;53.330;-1.180;2023-02-28T02:05:03;21.53;;;13.40;;
14326;SDS011;7247;53.330;-1.180;2023-02-28T02:07:32;21.83;;;12.03;;
14326;SDS011;7247;53.330;-1.180;2023-02-28T02:10:00;17.67;;;11.00;;
14326;SDS011;7247;53.330;-1.180;2023-02-28T02:12:31;16.73;;;10.20;;
14326;SDS011;7247;53.330;-1.180;2023-02-28T02:15:03;14.00;;;9.30;;
14326;SDS011;7247;53.330;-1.180;2023-02-28T02:17:34;12.80;;;8.83;;
14326;SDS011;7247;53.330;-1.180;2023-02-28T02:22:59;13.07;;;7.97;;
14326;SDS011;7247;53.330;-1.180;2023-02-28T02:25:28;10.40;;;7.63;;
14326;SDS011;7247;53.330;-1.180;2023-02-28T02:28:05;10.30;;;7.17;;
14326;SDS011;7247;53.330;-1.180;2023-02-28T02:30:43;12.10;;;7.27;;
14326;SDS011;7247;53.330;-1.180;2023-02-28T02:33:16;10.73;;;6.27;;
14326;SDS011;7247;53.330;-1.180;2023-02-28T02:35:52;9.13;;;6.70;;
14326;SDS011;7247;53.330;-1.180;2023-02-28T02:38:23;8.47;;;6.60;;
14326;SDS011;7247;53.330;-1.180;2023-02-28T02:40:56;10.37;;;6.47;;
14326;SDS011;7247;53.330;-1.180;2023-02-28T02:43:25;7.20;;;5.97;;
14326;SDS011;7247;53.330;-1.180;2023-02-28T02:45:55;9.97;;;6.47;;
14326;SDS011;7247;53.330;-1.180;2023-02-28T02:48:24;12.73;;;6.27;;
14326;SDS011;7247;53.330;-1.180;2023-02-28T02:50:54;9.87;;;6.63;;
14326;SDS011;7247;53.330;-1.180;2023-02-28T02:53:21;9.93;;;6.30;;
14326;SDS011;7247;53.330;-1.180;2023-02-28T02:55:50;8.60;;;5.83;;
14326;SDS011;7247;53.330;-1.180;2023-02-28T02:58:20;10.33;;;6.03;;
14326;SDS011;7247;53.330;-1.180;2023-02-28T03:00:48;8.43;;;5.13;;
14326;SDS011;7247;53.330;-1.180;2023-02-28T03:03:16;6.33;;;4.60;;
14326;SDS011;7247;53.330;-1.180;2023-02-28T03:05:46;7.97;;;4.77;;
14326;SDS011;7247;53.330;-1.180;2023-02-28T03:08:14;6.43;;;4.70;;
14326;SDS011;7247;53.330;-1.180;2023-02-28T03:10:41;5.93;;;4.40;;
14326;SDS011;7247;53.330;-1.180;2023-02-28T03:15:53;6.70;;;4.90;;
14326;SDS011;7247;53.330;-1.180;2023-02-28T03:18:22;9.23;;;5.70;;
14326;SDS011;7247;53.330;-1.180;2023-02-28T03:20:52;5.87;;;5.07;;
14326;SDS011;7247;53.330;-1.180;2023-02-28T03:23:26;7.27;;;5.20;;
14326;SDS011;7247;53.330;-1.180;2023-02-28T03:25:56;7.03;;;5.07;;
14326;SDS011;7247;53.330;-1.180;2023-02-28T03:28:28;9.17;;;5.30;;
14326;SDS011;7247;53.330;-1.180;2023-02-28T03:30:58;5.97;;;5.30;;
14326;SDS011;7247;53.330;-1.180;2023-02-28T03:33:27;7.93;;;5.53;;
14326;SDS011;7247;53.330;-1.180;2023-02-28T03:35:54;7.40;;;5.07;;
14326;SDS011;7247;53.330;-1.180;2023-02-28T03:38:23;6.70;;;4.70;;
14326;SDS011;7247;53.330;-1.180;2023-02-28T03:40:54;6.93;;;4.40;;
14326;SDS011;7247;53.330;-1.180;2023-02-28T03:43:22;6.87;;;4.53;;
14326;SDS011;7247;53.330;-1.180;2023-02-28T03:45:51;9.30;;;4.07;;
14326;SDS011;7247;53.330;-1.180;2023-02-28T03:48:19;4.83;;;4.33;;
14326;SDS011;7247;53.330;-1.180;2023-02-28T03:50:47;6.73;;;4.10;;
14326;SDS011;7247;53.330;-1.180;2023-02-28T03:53:16;6.10;;;4.40;;
14326;SDS011;7247;53.330;-1.180;2023-02-28T03:55:44;7.33;;;4.10;;
14326;SDS011;7247;53.330;-1.180;2023-02-28T03:58:14;4.93;;;3.70;;
14326;SDS011;7247;53.330;-1.180;2023-02-28T04:00:43;8.60;;;4.80;;
14326;SDS011;7247;53.330;-1.180;2023-02-28T04:03:11;7.67;;;4.60;;
14326;SDS011;7247;53.330;-1.180;2023-02-28T04:05:45;8.23;;;5.47;;
14326;SDS011;7247;53.330;-1.180;2023-02-28T04:08:12;8.20;;;5.90;;
14326;SDS011;7247;53.330;-1.180;2023-02-28T04:10:39;13.33;;;7.20;;
14326;SDS011;7247;53.330;-1.180;2023-02-28T04:13:05;10.77;;;7.97;;
14326;SDS011;7247;53.330;-1.180;2023-02-28T04:15:33;12.40;;;7.50;;
14326;SDS011;7247;53.330;-1.180;2023-02-28T04:17:59;12.13;;;7.70;;
14326;SDS011;7247;53.330;-1.180;2023-02-28T04:20:26;13.27;;;8.40;;
14326;SDS011;7247;53.330;-1.180;2023-02-28T04:22:52;13.50;;;9.07;;
14326;SDS011;7247;53.330;-1.180;2023-02-28T04:25:18;14.60;;;10.27;;
14326;SDS011;7247;53.330;-1.180;2023-02-28T04:27:45;16.73;;;11.03;;
14326;SDS011;7247;53.330;-1.180;2023-02-28T04:30:11;14.77;;;10.83;;
14326;SDS011;7247;53.330;-1.180;2023-02-28T04:32:39;16.90;;;11.80;;
14326;SDS011;7247;53.330;-1.180;2023-02-28T04:35:06;16.23;;;11.80;;
14326;SDS011;7247;53.330;-1.180;2023-02-28T04:37:33;16.47;;;11.40;;
14326;SDS011;7247;53.330;-1.180;2023-02-28T04:39:59;18.50;;;11.90;;
14326;SDS011;7247;53.330;-1.180;2023-02-28T04:42:26;19.07;;;11.47;;
14326;SDS011;7247;53.330;-1.180;2023-02-28T04:44:52;14.30;;;10.63;;
14326;SDS011;7247;53.330;-1.180;2023-02-28T04:47:19;14.07;;;9.13;;
14326;SDS011;7247;53.330;-1.180;2023-02-28T04:49:46;13.10;;;9.43;;
14326;SDS011;7247;53.330;-1.180;2023-02-28T04:52:13;11.87;;;9.27;;
14326;SDS011;7247;53.330;-1.180;2023-02-28T04:54:39;12.07;;;8.90;;
14326;SDS011;7247;53.330;-1.180;2023-02-28T04:57:06;15.17;;;9.23;;
14326;SDS011;7247;53.330;-1.180;2023-02-28T04:59:32;12.17;;;9.30;;
14326;SDS011;7247;53.330;-1.180;2023-02-28T05:01:58;13.90;;;9.47;;
14326;SDS011;7247;53.330;-1.180;2023-02-28T05:04:25;13.57;;;9.90;;
14326;SDS011;7247;53.330;-1.180;2023-02-28T05:06:53;10.37;;;9.27;;
14326;SDS011;7247;53.330;-1.180;2023-02-28T05:09:20;13.03;;;10.63;;
14326;SDS011;7247;53.330;-1.180;2023-02-28T05:11:46;11.67;;;9.47;;
14326;SDS011;7247;53.330;-1.180;2023-02-28T05:14:13;15.33;;;9.83;;
14326;SDS011;7247;53.330;-1.180;2023-02-28T05:16:40;11.93;;;9.03;;
14326;SDS011;7247;53.330;-1.180;2023-02-28T05:19:06;10.13;;;8.97;;
14326;SDS011;7247;53.330;-1.180;2023-02-28T05:21:33;11.97;;;9.73;;
14326;SDS011;7247;53.330;-1.180;2023-02-28T05:24:02;11.70;;;9.70;;
14326;SDS011;7247;53.330;-1.180;2023-02-28T05:26:28;13.33;;;9.37;;
14326;SDS011;7247;53.330;-1.180;2023-02-28T05:28:55;9.57;;;8.57;;
14326;SDS011;7247;53.330;-1.180;2023-02-28T05:31:21;10.07;;;8.53;;
14326;SDS011;7247;53.330;-1.180;2023-02-28T05:33:48;11.00;;;8.10;;
14326;SDS011;7247;53.330;-1.180;2023-02-28T05:36:14;10.30;;;8.77;;
14326;SDS011;7247;53.330;-1.180;2023-02-28T05:38:41;9.97;;;8.50;;
14326;SDS011;7247;53.330;-1.180;2023-02-28T05:41:09;10.40;;;8.80;;
14326;SDS011;7247;53.330;-1.180;2023-02-28T05:43:35;9.80;;;8.33;;
14326;SDS011;7247;53.330;-1.180;2023-02-28T05:46:03;12.13;;;9.33;;
14326;SDS011;7247;53.330;-1.180;2023-02-28T05:48:29;11.87;;;8.03;;
14326;SDS011;7247;53.330;-1.180;2023-02-28T05:50:56;11.00;;;8.23;;
14326;SDS011;7247;53.330;-1.180;2023-02-28T05:53:23;9.70;;;7.47;;
14326;SDS011;7247;53.330;-1.180;2023-02-28T05:55:49;9.37;;;7.70;;
14326;SDS011;7247;53.330;-1.180;2023-02-28T05:58:17;11.60;;;7.50;;
14326;SDS011;7247;53.330;-1.180;2023-02-28T06:00:43;8.43;;;6.93;;
14326;SDS011;7247;53.330;-1.180;2023-02-28T06:03:10;9.53;;;7.60;;
14326;SDS011;7247;53.330;-1.180;2023-02-28T06:05:37;9.07;;;6.33;;
14326;SDS011;7247;53.330;-1.180;2023-02-28T06:08:04;8.83;;;7.03;;
14326;SDS011;7247;53.330;-1.180;2023-02-28T06:10:32;10.27;;;7.20;;
14326;SDS011;7247;53.330;-1.180;2023-02-28T06:12:59;11.27;;;8.07;;
14326;SDS011;7247;53.330;-1.180;2023-02-28T06:15:27;11.93;;;8.33;;
14326;SDS011;7247;53.330;-1.180;2023-02-28T06:17:53;10.57;;;8.90;;
14326;SDS011;7247;53.330;-1.180;2023-02-28T06:20:21;11.43;;;9.20;;
14326;SDS011;7247;53.330;-1.180;2023-02-28T06:22:47;12.70;;;9.33;;
14326;SDS011;7247;53.330;-1.180;2023-02-28T06:25:15;12.57;;;9.87;;
14326;SDS011;7247;53.330;-1.180;2023-02-28T06:27:41;13.50;;;10.07;;
14326;SDS011;7247;53.330;-1.180;2023-02-28T06:30:09;14.83;;;9.67;;
14326;SDS011;7247;53.330;-1.180;2023-02-28T06:32:37;14.60;;;9.40;;
14326;SDS011;7247;53.330;-1.180;2023-02-28T06:35:04;12.83;;;8.77;;
14326;SDS011;7247;53.330;-1.180;2023-02-28T06:37:30;13.53;;;9.03;;
14326;SDS011;7247;53.330;-1.180;2023-02-28T06:39:57;12.60;;;9.00;;
14326;SDS011;7247;53.330;-1.180;2023-02-28T06:42:24;14.60;;;9.40;;
14326;SDS011;7247;53.330;-1.180;2023-02-28T06:44:53;14.87;;;8.97;;
14326;SDS011;7247;53.330;-1.180;2023-02-28T06:47:20;14.20;;;8.93;;
14326;SDS011;7247;53.330;-1.180;2023-02-28T06:49:48;14.40;;;8.03;;
14326;SDS011;7247;53.330;-1.180;2023-02-28T06:52:15;10.50;;;7.40;;
14326;SDS011;7247;53.330;-1.180;2023-02-28T06:54:41;12.10;;;7.10;;
14326;SDS011;7247;53.330;-1.180;2023-02-28T06:57:08;13.10;;;6.80;;
14326;SDS011;7247;53.330;-1.180;2023-02-28T06:59:34;11.53;;;6.80;;
14326;SDS011;7247;53.330;-1.180;2023-02-28T07:02:01;10.07;;;6.73;;
14326;SDS011;7247;53.330;-1.180;2023-02-28T07:04:28;11.80;;;6.33;;
14326;SDS011;7247;53.330;-1.180;2023-02-28T07:06:55;10.00;;;7.07;;
14326;SDS011;7247;53.330;-1.180;2023-02-28T07:09:22;11.73;;;7.10;;
14326;SDS011;7247;53.330;-1.180;2023-02-28T07:11:48;7.77;;;5.97;;
14326;SDS011;7247;53.330;-1.180;2023-02-28T07:14:15;14.90;;;6.87;;
14326;SDS011;7247;53.330;-1.180;2023-02-28T07:16:41;8.83;;;6.47;;
14326;SDS011;7247;53.330;-1.180;2023-02-28T07:19:09;10.67;;;6.27;;
14326;SDS011;7247;53.330;-1.180;2023-02-28T07:21:36;8.77;;;5.83;;
14326;SDS011;7247;53.330;-1.180;2023-02-28T07:24:04;8.20;;;6.17;;
14326;SDS011;7247;53.330;-1.180;2023-02-28T07:26:30;9.90;;;5.97;;
14326;SDS011;7247;53.330;-1.180;2023-02-28T07:28:59;8.03;;;5.90;;
14326;SDS011;7247;53.330;-1.180;2023-02-28T07:31:25;7.67;;;5.40;;
14326;SDS011;7247;53.330;-1.180;2023-02-28T07:33:52;7.10;;;4.60;;
14326;SDS011;7247;53.330;-1.180;2023-02-28T07:36:19;8.23;;;5.27;;
14326;SDS011;7247;53.330;-1.180;2023-02-28T07:38:46;10.53;;;5.50;;
14326;SDS011;7247;53.330;-1.180;2023-02-28T07:41:14;7.87;;;5.50;;
14326;SDS011;7247;53.330;-1.180;2023-02-28T07:43:41;9.10;;;6.30;;
14326;SDS011;7247;53.330;-1.180;2023-02-28T07:46:08;9.70;;;7.00;;
14326;SDS011;7247;53.330;-1.180;2023-02-28T07:48:35;11.23;;;7.73;;
14326;SDS011;7247;53.330;-1.180;2023-02-28T07:51:01;11.73;;;8.30;;
14326;SDS011;7247;53.330;-1.180;2023-02-28T07:53:28;13.40;;;8.40;;
14326;SDS011;7247;53.330;-1.180;2023-02-28T07:55:55;13.30;;;9.03;;
14326;SDS011;7247;53.330;-1.180;2023-02-28T07:58:23;10.87;;;8.03;;
14326;SDS011;7247;53.330;-1.180;2023-02-28T08:00:49;10.70;;;7.60;;
14326;SDS011;7247;53.330;-1.180;2023-02-28T08:03:16;10.33;;;6.70;;
14326;SDS011;7247;53.330;-1.180;2023-02-28T08:05:43;9.27;;;5.40;;
14326;SDS011;7247;53.330;-1.180;2023-02-28T08:08:09;6.57;;;4.73;;
14326;SDS011;7247;53.330;-1.180;2023-02-28T08:10:36;7.00;;;4.20;;
14326;SDS011;7247;53.330;-1.180;2023-02-28T08:13:03;6.50;;;4.17;;
14326;SDS011;7247;53.330;-1.180;2023-02-28T08:15:31;9.77;;;5.23;;
14326;SDS011;7247;53.330;-1.180;2023-02-28T08:17:57;13.47;;;5.30;;
14326;SDS011;7247;53.330;-1.180;2023-02-28T08:20:24;7.27;;;5.20;;
14326;SDS011;7247;53.330;-1.180;2023-02-28T08:22:50;9.87;;;4.70;;
14326;SDS011;7247;53.330;-1.180;2023-02-28T08:25:17;7.33;;;4.93;;
14326;SDS011;7247;53.330;-1.180;2023-02-28T08:27:43;5.90;;;4.80;;
14326;SDS011;7247;53.330;-1.180;2023-02-28T08:30:10;9.03;;;5.30;;
14326;SDS011;7247;53.330;-1.180;2023-02-28T08:32:38;8.70;;;5.20;;
14326;SDS011;7247;53.330;-1.180;2023-02-28T08:35:05;8.40;;;4.93;;
14326;SDS011;7247;53.330;-1.180;2023-02-28T08:37:31;5.90;;;4.40;;
14326;SDS011;7247;53.330;-1.180;2023-02-28T08:39:58;7.20;;;4.60;;
14326;SDS011;7247;53.330;-1.180;2023-02-28T08:42:24;6.20;;;4.63;;
14326;SDS011;7247;53.330;-1.180;2023-02-28T08:44:50;7.00;;;4.43;;
14326;SDS011;7247;53.330;-1.180;2023-02-28T08:47:17;6.97;;;4.30;;
14326;SDS011;7247;53.330;-1.180;2023-02-28T08:49:45;5.43;;;3.70;;
14326;SDS011;7247;53.330;-1.180;2023-02-28T08:52:11;4.53;;;3.80;;
14326;SDS011;7247;53.330;-1.180;2023-02-28T08:54:37;5.63;;;4.33;;
14326;SDS011;7247;53.330;-1.180;2023-02-28T08:57:04;4.83;;;3.70;;
14326;SDS011;7247;53.330;-1.180;2023-02-28T08:59:30;4.23;;;3.50;;
14326;SDS011;7247;53.330;-1.180;2023-02-28T09:01:57;6.80;;;3.03;;
14326;SDS011;7247;53.330;-1.180;2023-02-28T09:04:23;6.33;;;3.23;;
14326;SDS011;7247;53.330;-1.180;2023-02-28T09:06:51;5.17;;;3.20;;
14326;SDS011;7247;53.330;-1.180;2023-02-28T09:09:18;4.17;;;2.60;;
14326;SDS011;7247;53.330;-1.180;2023-02-28T09:11:44;4.97;;;3.00;;
14326;SDS011;7247;53.330;-1.180;2023-02-28T09:14:10;5.57;;;2.93;;
14326;SDS011;7247;53.330;-1.180;2023-02-28T09:16:37;3.87;;;2.90;;
14326;SDS011;7247;53.330;-1.180;2023-02-28T09:19:03;3.97;;;2.87;;
14326;SDS011;7247;53.330;-1.180;2023-02-28T09:21:29;4.63;;;3.17;;
14326;SDS011;7247;53.330;-1.180;2023-02-28T09:23:57;6.00;;;2.90;;
14326;SDS011;7247;53.330;-1.180;2023-02-28T09:26:24;5.53;;;2.90;;
14326;SDS011;7247;53.330;-1.180;2023-02-28T09:28:51;5.50;;;3.10;;
14326;SDS011;7247;53.330;-1.180;2023-02-28T09:31:18;4.47;;;2.77;;
14326;SDS011;7247;53.330;-1.180;2023-02-28T09:33:46;6.00;;;3.30;;
14326;SDS011;7247;53.330;-1.180;2023-02-28T09:36:13;4.50;;;3.37;;
14326;SDS011;7247;53.330;-1.180;2023-02-28T09:38:39;5.17;;;3.93;;
14326;SDS011;7247;53.330;-1.180;2023-02-28T09:41:11;4.20;;;3.80;;
14326;SDS011;7247;53.330;-1.180;2023-02-28T09:43:38;5.90;;;2.90;;
14326;SDS011;7247;53.330;-1.180;2023-02-28T09:46:08;4.70;;;2.60;;
14326;SDS011;7247;53.330;-1.180;2023-02-28T09:48:39;3.40;;;2.07;;
14326;SDS011;7247;53.330;-1.180;2023-02-28T09:51:11;4.60;;;2.03;;
14326;SDS011;7247;53.330;-1.180;2023-02-28T09:53:40;3.87;;;1.97;;
14326;SDS011;7247;53.330;-1.180;2023-02-28T09:56:07;2.93;;;2.30;;
14326;SDS011;7247;53.330;-1.180;2023-02-28T09:58:36;3.07;;;2.40;;
14326;SDS011;7247;53.330;-1.180;2023-02-28T10:01:06;4.27;;;2.87;;
14326;SDS011;7247;53.330;-1.180;2023-02-28T10:03:34;4.70;;;2.60;;
14326;SDS011;7247;53.330;-1.180;2023-02-28T10:06:04;6.20;;;3.43;;
14326;SDS011;7247;53.330;-1.180;2023-02-28T10:08:33;4.67;;;3.53;;
14326;SDS011;7247;53.330;-1.180;2023-02-28T10:11:08;6.17;;;4.00;;
14326;SDS011;7247;53.330;-1.180;2023-02-28T10:13:39;5.60;;;3.37;;
14326;SDS011;7247;53.330;-1.180;2023-02-28T10:16:08;3.67;;;2.83;;
14326;SDS011;7247;53.330;-1.180;2023-02-28T10:18:40;4.60;;;3.53;;
14326;SDS011;7247;53.330;-1.180;2023-02-28T10:21:09;5.23;;;3.10;;
14326;SDS011;7247;53.330;-1.180;2023-02-28T10:23:41;4.00;;;3.10;;
14326;SDS011;7247;53.330;-1.180;2023-02-28T10:26:11;5.37;;;2.80;;
14326;SDS011;7247;53.330;-1.180;2023-02-28T10:28:39;3.07;;;2.77;;
14326;SDS011;7247;53.330;-1.180;2023-02-28T10:31:06;3.97;;;2.73;;
14326;SDS011;7247;53.330;-1.180;2023-02-28T10:33:35;3.57;;;2.63;;
14326;SDS011;7247;53.330;-1.180;2023-02-28T10:36:02;4.70;;;2.60;;
14326;SDS011;7247;53.330;-1.180;2023-02-28T10:38:32;4.47;;;2.40;;
14326;SDS011;7247;53.330;-1.180;2023-02-28T10:41:06;3.83;;;2.30;;
14326;SDS011;7247;53.330;-1.180;2023-02-28T10:43:33;2.37;;;1.60;;
14326;SDS011;7247;53.330;-1.180;2023-02-28T10:46:02;1.90;;;1.40;;
14326;SDS011;7247;53.330;-1.180;2023-02-28T10:48:30;2.87;;;1.43;;
14326;SDS011;7247;53.330;-1.180;2023-02-28T10:50:58;4.03;;;1.50;;
14326;SDS011;7247;53.330;-1.180;2023-02-28T10:53:28;2.60;;;1.40;;
14326;SDS011;7247;53.330;-1.180;2023-02-28T10:55:58;3.50;;;1.60;;
14326;SDS011;7247;53.330;-1.180;2023-02-28T10:58:26;3.93;;;1.80;;
14326;SDS011;7247;53.330;-1.180;2023-02-28T11:00:53;3.73;;;1.70;;
14326;SDS011;7247;53.330;-1.180;2023-02-28T11:03:24;5.77;;;1.90;;
14326;SDS011;7247;53.330;-1.180;2023-02-28T11:05:51;4.40;;;1.70;;
14326;SDS011;7247;53.330;-1.180;2023-02-28T11:08:17;2.50;;;1.83;;
14326;SDS011;7247;53.330;-1.180;2023-02-28T11:10:44;3.23;;;1.93;;
14326;SDS011;7247;53.330;-1.180;2023-02-28T11:13:15;2.63;;;1.60;;
14326;SDS011;7247;53.330;-1.180;2023-02-28T11:15:42;4.87;;;1.50;;
14326;SDS011;7247;53.330;-1.180;2023-02-28T11:18:19;1.50;;;1.40;;
14326;SDS011;7247;53.330;-1.180;2023-02-28T11:20:48;1.97;;;1.30;;
14326;SDS011;7247;53.330;-1.180;2023-02-28T11:23:16;2.97;;;1.57;;
14326;SDS011;7247;53.330;-1.180;2023-02-28T11:25:46;3.13;;;1.60;;
14326;SDS011;7247;53.330;-1.180;2023-02-28T11:28:23;4.80;;;2.10;;
14326;SDS011;7247;53.330;-1.180;2023-02-28T11:30:59;2.50;;;2.00;;
14326;SDS011;7247;53.330;-1.180;2023-02-28T11:33:27;2.27;;;1.80;;
14326;SDS011;7247;53.330;-1.180;2023-02-28T11:35:55;2.20;;;1.40;;
14326;SDS011;7247;53.330;-1.180;2023-02-28T11:38:24;2.17;;;1.50;;
14326;SDS011;7247;53.330;-1.180;2023-02-28T11:40:53;3.03;;;1.60;;
14326;SDS011;7247;53.330;-1.180;2023-02-28T11:43:26;3.53;;;1.70;;
14326;SDS011;7247;53.330;-1.180;2023-02-28T11:45:58;3.07;;;2.00;;
14326;SDS011;7247;53.330;-1.180;2023-02-28T11:48:27;1.70;;;1.47;;
14326;SDS011;7247;53.330;-1.180;2023-02-28T11:51:01;2.53;;;2.00;;
14326;SDS011;7247;53.330;-1.180;2023-02-28T11:53:35;4.17;;;1.80;;
14326;SDS011;7247;53.330;-1.180;2023-02-28T11:56:08;1.60;;;1.50;;
14326;SDS011;7247;53.330;-1.180;2023-02-28T11:58:39;1.70;;;1.60;;
14326;SDS011;7247;53.330;-1.180;2023-02-28T12:04:04;3.30;;;1.40;;
14326;SDS011;7247;53.330;-1.180;2023-02-28T12:06:40;1.43;;;1.33;;
14326;SDS011;7247;53.330;-1.180;2023-02-28T12:09:13;2.23;;;1.80;;
14326;SDS011;7247;53.330;-1.180;2023-02-28T12:11:47;1.70;;;1.50;;
14326;SDS011;7247;53.330;-1.180;2023-02-28T12:14:21;4.50;;;2.20;;
14326;SDS011;7247;53.330;-1.180;2023-02-28T12:16:54;3.57;;;1.67;;
14326;SDS011;7247;53.330;-1.180;2023-02-28T12:19:25;1.67;;;1.30;;
14326;SDS011;7247;53.330;-1.180;2023-02-28T12:22:01;2.00;;;1.33;;
14326;SDS011;7247;53.330;-1.180;2023-02-28T12:24:34;3.60;;;1.30;;
14326;SDS011;7247;53.330;-1.180;2023-02-28T12:27:05;2.63;;;1.93;;
14326;SDS011;7247;53.330;-1.180;2023-02-28T12:29:34;2.67;;;2.07;;
14326;SDS011;7247;53.330;-1.180;2023-02-28T12:32:04;3.63;;;2.50;;
14326;SDS011;7247;53.330;-1.180;2023-02-28T12:34:32;4.00;;;2.50;;
14326;SDS011;7247;53.330;-1.180;2023-02-28T12:37:01;3.90;;;2.90;;
14326;SDS011;7247;53.330;-1.180;2023-02-28T12:39:30;3.97;;;2.50;;
14326;SDS011;7247;53.330;-1.180;2023-02-28T12:41:59;3.90;;;2.50;;
14326;SDS011;7247;53.330;-1.180;2023-02-28T12:44:30;2.60;;;2.20;;
14326;SDS011;7247;53.330;-1.180;2023-02-28T12:46:58;3.63;;;2.03;;
14326;SDS011;7247;53.330;-1.180;2023-02-28T12:49:25;3.00;;;1.87;;
14326;SDS011;7247;53.330;-1.180;2023-02-28T12:51:55;1.77;;;1.53;;
14326;SDS011;7247;53.330;-1.180;2023-02-28T12:54:24;2.47;;;1.77;;
14326;SDS011;7247;53.330;-1.180;2023-02-28T12:56:54;4.23;;;2.07;;
14326;SDS011;7247;53.330;-1.180;2023-02-28T12:59:25;3.27;;;2.87;;
14326;SDS011;7247;53.330;-1.180;2023-02-28T13:04:46;2.83;;;2.40;;
14326;SDS011;7247;53.330;-1.180;2023-02-28T13:07:35;3.43;;;3.10;;
14326;SDS011;7247;53.330;-1.180;2023-02-28T13:10:08;3.37;;;2.97;;
14326;SDS011;7247;53.330;-1.180;2023-02-28T13:12:35;3.40;;;2.93;;
14326;SDS011;7247;53.330;-1.180;2023-02-28T13:15:04;4.73;;;3.70;;
14326;SDS011;7247;53.330;-1.180;2023-02-28T13:17:31;5.33;;;4.57;;
14326;SDS011;7247;53.330;-1.180;2023-02-28T13:19:58;8.70;;;5.73;;
14326;SDS011;7247;53.330;-1.180;2023-02-28T13:22:44;5.57;;;3.93;;
14326;SDS011;7247;53.330;-1.180;2023-02-28T13:27:57;3.57;;;2.57;;
14326;SDS011;7247;53.330;-1.180;2023-02-28T13:33:29;2.93;;;2.47;;
14326;SDS011;7247;53.330;-1.180;2023-02-28T13:36:09;4.20;;;3.80;;
14326;SDS011;7247;53.330;-1.180;2023-02-28T13:38:39;4.23;;;3.83;;
14326;SDS011;7247;53.330;-1.180;2023-02-28T13:44:05;4.00;;;3.60;;
14326;SDS011;7247;53.330;-1.180;2023-02-28T13:46:32;4.00;;;3.27;;
14326;SDS011;7247;53.330;-1.180;2023-02-28T13:51:41;4.60;;;4.13;;
14326;SDS011;7247;53.330;-1.180;2023-02-28T13:54:21;6.83;;;6.13;;
14326;SDS011;7247;53.330;-1.180;2023-02-28T13:56:52;7.00;;;6.30;;
14326;SDS011;7247;53.330;-1.180;2023-02-28T13:59:24;6.80;;;6.13;;
14326;SDS011;7247;53.330;-1.180;2023-02-28T14:02:01;7.70;;;6.90;;
14326;SDS011;7247;53.330;-1.180;2023-02-28T14:04:45;8.90;;;7.47;;
14326;SDS011;7247;53.330;-1.180;2023-02-28T14:07:18;8.10;;;7.40;;
14326;SDS011;7247;53.330;-1.180;2023-02-28T14:09:46;6.03;;;4.53;;
14326;SDS011;7247;53.330;-1.180;2023-02-28T14:15:01;2.90;;;1.80;;
14326;SDS011;7247;53.330;-1.180;2023-02-28T14:17:28;4.40;;;1.97;;
14326;SDS011;7247;53.330;-1.180;2023-02-28T14:19:55;2.50;;;1.70;;
14326;SDS011;7247;53.330;-1.180;2023-02-28T14:22:38;3.40;;;1.90;;
14326;SDS011;7247;53.330;-1.180;2023-02-28T14:25:11;3.63;;;1.70;;
14326;SDS011;7247;53.330;-1.180;2023-02-28T14:27:43;3.93;;;2.10;;
14326;SDS011;7247;53.330;-1.180;2023-02-28T14:33:05;6.30;;;5.70;;
14326;SDS011;7247;53.330;-1.180;2023-02-28T14:35:39;5.03;;;3.70;;
14326;SDS011;7247;53.330;-1.180;2023-02-28T14:38:14;3.63;;;3.10;;
14326;SDS011;7247;53.330;-1.180;2023-02-28T14:40:43;4.13;;;2.33;;
14326;SDS011;7247;53.330;-1.180;2023-02-28T14:43:18;4.20;;;2.63;;
14326;SDS011;7247;53.330;-1.180;2023-02-28T14:45:48;3.93;;;2.13;;
14326;SDS011;7247;53.330;-1.180;2023-02-28T14:48:16;4.23;;;1.90;;
14326;SDS011;7247;53.330;-1.180;2023-02-28T14:50:47;5.07;;;2.00;;
14326;SDS011;7247;53.330;-1.180;2023-02-28T14:53:15;3.47;;;1.63;;
14326;SDS011;7247;53.330;-1.180;2023-02-28T14:55:43;4.77;;;2.10;;
14326;SDS011;7247;53.330;-1.180;2023-02-28T14:58:17;5.97;;;2.77;;
14326;SDS011;7247;53.330;-1.180;2023-02-28T15:00:46;7.83;;;2.73;;
14326;SDS011;7247;53.330;-1.180;2023-02-28T15:03:18;5.27;;;3.27;;
14326;SDS011;7247;53.330;-1.180;2023-02-28T15:05:51;4.37;;;3.07;;
14326;SDS011;7247;53.330;-1.180;2023-02-28T15:08:17;5.97;;;2.60;;
14326;SDS011;7247;53.330;-1.180;2023-02-28T15:10:45;7.27;;;3.03;;
14326;SDS011;7247;53.330;-1.180;2023-02-28T15:13:12;5.47;;;3.00;;
14326;SDS011;7247;53.330;-1.180;2023-02-28T15:15:41;2.83;;;2.07;;
14326;SDS011;7247;53.330;-1.180;2023-02-28T15:18:10;4.57;;;2.20;;
14326;SDS011;7247;53.330;-1.180;2023-02-28T15:20:40;4.40;;;2.60;;